createdAt,value
2023-05-20T00:00:50.524Z,11.47
2023-05-20T00:03:17.683Z,11.44
2023-05-20T00:05:44.518Z,11.37
2023-05-20T00:08:11.333Z,11.19
2023-05-20T00:10:38.427Z,11.30
2023-05-20T00:13:06.596Z,11.34
2023-05-20T00:15:34.784Z,11.27
2023-05-20T00:18:02.668Z,11.26
2023-05-20T00:20:29.404Z,11.11
2023-05-20T00:22:58.560Z,11.20
2023-05-20T00:25:25.349Z,11.13
2023-05-20T00:27:52.094Z,11.18
2023-05-20T00:30:18.620Z,11.22
2023-05-20T00:32:45.412Z,11.23
2023-05-20T00:35:11.978Z,11.23
2023-05-20T00:37:38.431Z,11.22
2023-05-20T00:40:05.771Z,11.14
2023-05-20T00:42:32.259Z,11.24
2023-05-20T00:44:58.738Z,11.14
2023-05-20T00:47:34.484Z,11.26
2023-05-20T00:50:01.557Z,11.26
2023-05-20T00:52:31.348Z,11.26
2023-05-20T00:54:58.934Z,11.30
2023-05-20T00:57:26.066Z,11.27
2023-05-20T00:59:53.158Z,11.31
2023-05-20T01:02:20.228Z,11.16
2023-05-20T01:04:47.481Z,11.06
2023-05-20T01:07:16.448Z,11.33
2023-05-20T01:09:43.515Z,11.37
2023-05-20T01:12:18.127Z,11.39
2023-05-20T01:14:50.808Z,11.40
2023-05-20T01:17:21.131Z,11.33
2023-05-20T01:19:48.652Z,11.50
2023-05-20T01:22:16.223Z,11.12
2023-05-20T01:24:49.586Z,11.41
2023-05-20T01:27:16.147Z,11.21
2023-05-20T01:29:44.100Z,11.42
2023-05-20T01:32:14.792Z,11.43
2023-05-20T01:34:41.956Z,11.18
2023-05-20T01:37:09.206Z,11.11
2023-05-20T01:39:38.372Z,11.42
2023-05-20T01:42:06.303Z,11.34
2023-05-20T01:44:33.762Z,11.23
2023-05-20T01:47:01.494Z,11.41
2023-05-20T01:49:28.913Z,11.41
2023-05-20T01:51:55.974Z,11.39
2023-05-20T01:54:22.460Z,11.38
2023-05-20T01:56:50.137Z,11.11
2023-05-20T01:59:16.772Z,11.21
2023-05-20T02:01:43.343Z,11.36
2023-05-20T02:04:10.393Z,11.26
2023-05-20T02:06:36.896Z,11.32
2023-05-20T02:09:03.554Z,11.15
2023-05-20T02:11:30.061Z,11.32
2023-05-20T02:13:57.062Z,11.27
2023-05-20T02:16:23.940Z,11.32
2023-05-20T02:18:53.025Z,11.30
2023-05-20T02:21:19.597Z,11.27
2023-05-20T02:23:46.506Z,11.16
2023-05-20T02:26:13.231Z,11.27
2023-05-20T02:28:43.503Z,11.15
2023-05-20T02:31:09.995Z,11.36
2023-05-20T02:33:36.480Z,11.16
2023-05-20T02:36:03.076Z,11.13
2023-05-20T02:38:31.829Z,11.19
2023-05-20T02:41:04.677Z,11.18
2023-05-20T02:43:32.517Z,11.15
2023-05-20T02:45:59.109Z,11.14
2023-05-20T02:48:25.770Z,11.07
2023-05-20T02:50:53.134Z,10.93
2023-05-20T02:53:19.719Z,11.08
2023-05-20T02:55:49.974Z,11.03
2023-05-20T02:58:17.275Z,11.04
2023-05-20T03:00:44.474Z,10.98
2023-05-20T03:03:11.166Z,10.96
2023-05-20T03:05:38.153Z,10.95
2023-05-20T03:08:09.704Z,10.97
2023-05-20T03:10:39.534Z,10.94
2023-05-20T03:13:08.839Z,10.90
2023-05-20T03:15:36.152Z,10.89
2023-05-20T03:18:03.556Z,10.85
2023-05-20T03:20:30.910Z,10.71
2023-05-20T03:22:57.414Z,10.82
2023-05-20T03:25:25.080Z,10.59
2023-05-20T03:27:51.913Z,10.49
2023-05-20T03:30:19.039Z,10.80
2023-05-20T03:32:45.621Z,10.56
2023-05-20T03:35:12.476Z,10.46
2023-05-20T03:37:39.860Z,10.79
2023-05-20T03:40:08.023Z,10.80
2023-05-20T03:42:34.724Z,10.85
2023-05-20T03:45:01.300Z,10.63
2023-05-20T03:47:28.413Z,10.71
2023-05-20T03:49:55.187Z,10.83
2023-05-20T03:52:22.233Z,10.85
2023-05-20T03:54:48.940Z,11.03
2023-05-20T03:57:15.907Z,11.01
2023-05-20T03:59:42.450Z,11.05
2023-05-20T04:02:09.802Z,11.05
2023-05-20T04:04:36.467Z,11.22
2023-05-20T04:07:05.734Z,11.28
2023-05-20T04:09:32.242Z,11.27
2023-05-20T04:11:59.024Z,11.27
2023-05-20T04:14:25.715Z,11.33
2023-05-20T04:16:52.619Z,11.60
2023-05-20T04:19:19.905Z,11.67
2023-05-20T04:21:46.601Z,11.66
2023-05-20T04:24:13.148Z,11.81
2023-05-20T04:26:39.933Z,11.87
2023-05-20T04:29:06.364Z,11.93
2023-05-20T04:31:32.963Z,11.95
2023-05-20T04:33:59.608Z,11.85
2023-05-20T04:36:28.968Z,12.12
2023-05-20T04:38:55.989Z,12.18
2023-05-20T04:41:22.882Z,12.00
2023-05-20T04:43:49.890Z,11.96
2023-05-20T04:46:16.757Z,12.11
2023-05-20T04:48:48.024Z,12.28
2023-05-20T04:51:14.537Z,12.33
2023-05-20T04:53:40.980Z,12.34
2023-05-20T04:56:08.215Z,12.37
2023-05-20T04:58:35.517Z,12.38
2023-05-20T05:01:02.728Z,12.41
2023-05-20T05:03:29.534Z,12.41
2023-05-20T05:05:58.188Z,12.39
2023-05-20T05:08:26.507Z,12.25
2023-05-20T05:10:53.114Z,12.33
2023-05-20T05:13:19.579Z,12.50
2023-05-20T05:15:46.066Z,12.52
2023-05-20T05:18:12.707Z,12.44
2023-05-20T05:20:39.270Z,12.58
2023-05-20T05:23:06.626Z,12.54
2023-05-20T05:25:33.303Z,12.66
2023-05-20T05:28:00.060Z,12.64
2023-05-20T05:30:27.186Z,12.76
2023-05-20T05:32:53.784Z,12.80
2023-05-20T05:35:20.463Z,12.77
2023-05-20T05:37:46.953Z,12.75
2023-05-20T05:40:13.634Z,12.96
2023-05-20T05:42:40.468Z,13.02
2023-05-20T05:45:07.638Z,13.08
2023-05-20T05:47:34.163Z,13.15
2023-05-20T05:50:00.647Z,13.22
2023-05-20T05:52:27.379Z,13.32
2023-05-20T05:54:54.365Z,13.45
2023-05-20T05:57:20.805Z,13.60
2023-05-20T05:59:47.329Z,13.75
2023-05-20T06:02:14.718Z,13.89
2023-05-20T06:04:41.606Z,14.04
2023-05-20T06:07:08.569Z,14.20
2023-05-20T06:09:35.272Z,14.30
2023-05-20T06:12:02.568Z,14.39
2023-05-20T06:14:29.303Z,14.20
2023-05-20T06:16:56.018Z,14.63
2023-05-20T06:19:22.686Z,14.67
2023-05-20T06:21:49.224Z,14.67
2023-05-20T06:24:16.067Z,14.97
2023-05-20T06:26:42.739Z,15.07
2023-05-20T06:29:09.284Z,15.20
2023-05-20T06:31:35.849Z,15.33
2023-05-20T06:34:02.362Z,15.26
2023-05-20T06:36:29.718Z,15.51
2023-05-20T06:38:56.792Z,15.60
2023-05-20T06:41:23.255Z,15.67
2023-05-20T06:43:51.773Z,15.72
2023-05-20T06:46:19.648Z,15.82
2023-05-20T06:48:46.170Z,15.87
2023-05-20T06:51:12.651Z,15.68
2023-05-20T06:53:39.229Z,16.06
2023-05-20T06:56:05.893Z,16.17
2023-05-20T06:58:32.836Z,16.16
2023-05-20T07:00:59.362Z,16.33
2023-05-20T07:03:25.962Z,16.39
2023-05-20T07:05:53.039Z,16.44
2023-05-20T07:08:19.581Z,16.57
2023-05-20T07:10:46.808Z,16.70
2023-05-20T07:13:13.278Z,16.82
2023-05-20T07:15:39.789Z,17.00
2023-05-20T07:18:06.568Z,17.17
2023-05-20T07:20:33.279Z,17.32
2023-05-20T07:23:00.924Z,17.19
2023-05-20T07:25:27.647Z,17.63
2023-05-20T07:27:54.204Z,17.81
2023-05-20T07:30:21.080Z,17.90
2023-05-20T07:32:47.574Z,18.03
2023-05-20T07:35:14.057Z,18.20
2023-05-20T07:37:40.892Z,18.29
2023-05-20T07:40:08.140Z,18.43
2023-05-20T07:42:35.337Z,18.52
2023-05-20T07:45:02.090Z,18.60
2023-05-20T07:47:28.652Z,18.68
2023-05-20T07:49:55.523Z,18.72
2023-05-20T07:52:22.390Z,18.71
2023-05-20T07:54:48.875Z,18.82
2023-05-20T07:57:15.405Z,18.81
2023-05-20T07:59:41.898Z,18.92
2023-05-20T08:02:08.766Z,18.94
2023-05-20T08:04:36.122Z,18.97
2023-05-20T08:07:02.885Z,18.87
2023-05-20T08:09:31.758Z,19.00
2023-05-20T08:11:58.325Z,19.04
2023-05-20T08:14:24.876Z,19.09
2023-05-20T08:16:54.492Z,18.89
2023-05-20T08:19:21.422Z,19.05
2023-05-20T08:21:48.421Z,19.20
2023-05-20T08:24:14.849Z,19.22
2023-05-20T08:26:41.528Z,19.24
2023-05-20T08:29:08.391Z,19.25
2023-05-20T08:31:34.986Z,19.17
2023-05-20T08:34:01.515Z,19.40
2023-05-20T08:36:27.946Z,19.45
2023-05-20T08:38:55.761Z,19.59
2023-05-20T08:41:22.734Z,19.69
2023-05-20T08:43:51.351Z,19.88
2023-05-20T08:46:18.799Z,20.08
2023-05-20T08:48:45.365Z,20.27
2023-05-20T08:51:11.915Z,20.52
2023-05-20T08:53:38.344Z,20.68
2023-05-20T08:56:05.520Z,20.57
2023-05-20T08:58:35.751Z,20.93
2023-05-20T09:01:02.461Z,20.95
2023-05-20T09:03:29.115Z,21.04
2023-05-20T09:06:04.446Z,21.08
2023-05-20T09:08:31.149Z,21.13
2023-05-20T09:10:57.792Z,21.22
2023-05-20T09:13:24.761Z,21.20
2023-05-20T09:15:51.664Z,21.22
2023-05-20T09:18:18.625Z,21.38
2023-05-20T09:20:48.219Z,21.47
2023-05-20T09:23:14.769Z,21.57
2023-05-20T09:25:41.513Z,21.74
2023-05-20T09:28:08.838Z,21.88
2023-05-20T09:30:35.743Z,22.07
2023-05-20T09:33:05.156Z,22.08
2023-05-20T09:38:04.927Z,22.79
2023-05-20T09:40:31.516Z,23.20
2023-05-20T09:43:07.407Z,23.45
2023-05-20T09:45:34.261Z,23.59
2023-05-20T09:48:02.978Z,23.77
2023-05-20T09:50:30.475Z,23.65
2023-05-20T09:53:01.771Z,23.90
2023-05-20T09:55:29.622Z,23.66
2023-05-20T09:57:56.712Z,23.68
2023-05-20T10:00:23.156Z,23.75
2023-05-20T10:02:53.579Z,23.60
2023-05-20T10:05:24.223Z,23.50
2023-05-20T10:08:09.219Z,23.47
2023-05-20T10:10:41.656Z,23.24
2023-05-20T10:13:25.583Z,23.15
2023-05-20T10:16:30.383Z,23.00
2023-05-20T10:19:23.023Z,22.76
2023-05-20T10:22:06.128Z,22.66
2023-05-20T10:24:41.232Z,22.44
2023-05-20T10:27:10.617Z,22.25
2023-05-20T10:29:43.610Z,22.13
2023-05-20T10:32:10.292Z,21.97
2023-05-20T10:34:48.031Z,21.80
2023-05-20T10:37:26.870Z,21.81
2023-05-20T10:40:03.712Z,21.83
2023-05-20T10:42:32.880Z,21.83
2023-05-20T10:44:59.422Z,21.94
2023-05-20T10:47:26.627Z,22.03
2023-05-20T10:49:53.222Z,22.25
2023-05-20T10:52:20.702Z,22.31
2023-05-20T10:54:55.547Z,22.59
2023-05-20T10:57:22.625Z,22.71
2023-05-20T10:59:49.921Z,22.78
2023-05-20T11:02:17.247Z,22.83
2023-05-20T11:04:44.653Z,22.80
2023-05-20T11:07:11.462Z,22.70
2023-05-20T11:09:38.277Z,22.58
2023-05-20T11:12:05.394Z,22.43
2023-05-20T11:14:32.062Z,22.50
2023-05-20T11:16:59.870Z,22.42
2023-05-20T11:19:27.514Z,22.30
2023-05-20T11:21:54.258Z,22.23
2023-05-20T11:24:28.221Z,22.20
2023-05-20T11:26:56.063Z,22.17
2023-05-20T11:29:22.793Z,22.02
2023-05-20T11:31:51.313Z,22.03
2023-05-20T11:34:24.858Z,21.90
2023-05-20T11:36:59.476Z,21.89
2023-05-20T11:39:30.381Z,21.84
2023-05-20T11:41:57.912Z,21.63
2023-05-20T11:44:24.782Z,21.61
2023-05-20T11:46:51.300Z,21.64
2023-05-20T11:49:17.837Z,21.58
2023-05-20T11:51:44.870Z,21.66
2023-05-20T11:54:11.740Z,21.66
2023-05-20T11:56:41.381Z,21.67
2023-05-20T11:59:10.161Z,21.72
2023-05-20T12:01:40.759Z,21.63
2023-05-20T12:04:08.386Z,21.66
2023-05-20T12:06:37.538Z,21.60
2023-05-20T12:09:09.036Z,21.61
2023-05-20T12:11:41.301Z,21.54
2023-05-20T12:14:08.905Z,21.26
2023-05-20T12:16:37.295Z,21.23
2023-05-20T12:19:04.235Z,21.11
2023-05-20T12:21:31.503Z,21.01
2023-05-20T12:23:59.966Z,20.69
2023-05-20T12:26:28.427Z,20.77
2023-05-20T12:28:55.343Z,20.73
2023-05-20T12:31:22.056Z,20.67
2023-05-20T12:33:48.536Z,20.60
2023-05-20T12:36:15.391Z,20.56
2023-05-20T12:38:42.144Z,20.68
2023-05-20T12:41:08.672Z,20.68
2023-05-20T12:43:37.361Z,20.58
2023-05-20T12:46:04.222Z,20.71
2023-05-20T12:48:30.963Z,20.68
2023-05-20T12:50:57.446Z,20.69
2023-05-20T12:53:24.074Z,20.65
2023-05-20T12:55:50.889Z,20.62
2023-05-20T12:58:17.438Z,20.60
2023-05-20T13:00:44.076Z,20.55
2023-05-20T13:03:11.200Z,20.61
2023-05-20T13:05:38.017Z,20.64
2023-05-20T13:08:04.718Z,20.64
2023-05-20T13:10:31.688Z,20.64
2023-05-20T13:12:58.315Z,20.76
2023-05-20T13:15:24.848Z,20.85
2023-05-20T13:17:51.323Z,20.82
2023-05-20T13:20:19.157Z,20.87
2023-05-20T13:22:46.313Z,20.85
2023-05-20T13:25:12.827Z,20.88
2023-05-20T13:27:39.370Z,20.90
2023-05-20T13:30:06.856Z,20.89
2023-05-20T13:32:33.533Z,20.80
2023-05-20T13:35:00.419Z,20.42
2023-05-20T13:37:26.942Z,21.01
2023-05-20T13:39:53.448Z,21.00
2023-05-20T13:42:21.417Z,21.07
2023-05-20T13:44:50.325Z,21.10
2023-05-20T13:47:16.917Z,20.92
2023-05-20T13:49:43.372Z,21.13
2023-05-20T13:52:09.935Z,21.19
2023-05-20T13:54:36.553Z,21.24
2023-05-20T13:57:07.685Z,21.33
2023-05-20T13:59:35.040Z,21.13
2023-05-20T14:02:02.290Z,21.36
2023-05-20T14:04:29.234Z,21.37
2023-05-20T14:06:56.226Z,21.44
2023-05-20T14:09:22.932Z,21.26
2023-05-20T14:11:51.360Z,21.47
2023-05-20T14:14:17.810Z,21.51
2023-05-20T14:16:44.273Z,21.15
2023-05-20T14:19:10.870Z,21.59
2023-05-20T14:21:37.428Z,21.61
2023-05-20T14:24:03.925Z,21.66
2023-05-20T14:26:30.502Z,21.60
2023-05-20T14:28:56.996Z,21.59
2023-05-20T14:31:23.616Z,21.56
2023-05-20T14:33:50.149Z,21.41
2023-05-20T14:36:17.096Z,21.15
2023-05-20T14:38:43.529Z,21.34
2023-05-20T14:41:12.911Z,21.22
2023-05-20T14:43:39.429Z,21.14
2023-05-20T14:46:06.018Z,21.01
2023-05-20T14:48:32.479Z,21.16
2023-05-20T14:50:58.984Z,21.10
2023-05-20T14:53:25.784Z,20.77
2023-05-20T14:55:52.250Z,21.30
2023-05-20T14:58:18.722Z,21.33
2023-05-20T15:00:45.404Z,21.10
2023-05-20T15:03:11.982Z,21.36
2023-05-20T15:05:38.731Z,21.24
2023-05-20T15:08:05.242Z,21.27
2023-05-20T15:10:31.936Z,21.21
2023-05-20T15:12:58.410Z,21.10
2023-05-20T15:15:25.183Z,20.97
2023-05-20T15:17:51.680Z,20.98
2023-05-20T15:20:18.192Z,20.86
2023-05-20T15:22:48.244Z,20.73
2023-05-20T15:25:14.821Z,21.00
2023-05-20T15:27:44.727Z,20.67
2023-05-20T15:30:11.910Z,20.46
2023-05-20T15:32:39.753Z,20.28
2023-05-20T15:35:06.880Z,20.35
2023-05-20T15:37:33.304Z,20.46
2023-05-20T15:40:00.149Z,20.29
2023-05-20T15:42:26.836Z,20.49
2023-05-20T15:44:53.279Z,20.49
2023-05-20T15:47:21.203Z,20.56
2023-05-20T15:49:47.664Z,20.56
2023-05-20T15:52:14.678Z,20.53
2023-05-20T15:54:41.406Z,20.55
2023-05-20T15:57:07.866Z,20.36
2023-05-20T15:59:34.367Z,20.54
2023-05-20T16:02:01.028Z,20.51
2023-05-20T16:04:27.621Z,20.51
2023-05-20T16:06:54.222Z,20.42
2023-05-20T16:09:21.147Z,20.36
2023-05-20T16:11:47.645Z,20.51
2023-05-20T16:14:14.096Z,20.56
2023-05-20T16:16:40.833Z,20.46
2023-05-20T16:19:08.506Z,20.45
2023-05-20T16:21:35.084Z,20.51
2023-05-20T16:24:01.532Z,20.45
2023-05-20T16:26:31.411Z,20.40
2023-05-20T16:28:57.959Z,20.33
2023-05-20T16:31:24.508Z,19.95
2023-05-20T16:33:51.266Z,20.22
2023-05-20T16:36:17.812Z,20.19
2023-05-20T16:38:52.545Z,20.06
2023-05-20T16:41:19.026Z,19.86
2023-05-20T16:43:46.220Z,20.09
2023-05-20T16:46:14.523Z,20.14
2023-05-20T16:48:41.353Z,20.13
2023-05-20T16:51:07.824Z,20.03
2023-05-20T16:53:34.330Z,20.10
2023-05-20T16:56:00.846Z,20.05
2023-05-20T16:58:27.256Z,20.02
2023-05-20T17:00:55.293Z,19.80
2023-05-20T17:03:21.914Z,19.96
2023-05-20T17:05:48.377Z,19.93
2023-05-20T17:08:15.018Z,19.79
2023-05-20T17:10:41.539Z,19.67
2023-05-20T17:13:08.002Z,19.84
2023-05-20T17:15:37.150Z,19.75
2023-05-20T17:18:04.102Z,19.55
2023-05-20T17:20:31.206Z,19.60
2023-05-20T17:22:57.765Z,19.73
2023-05-20T17:25:24.380Z,19.45
2023-05-20T17:27:51.523Z,19.59
2023-05-20T17:30:18.078Z,19.33
2023-05-20T17:32:44.695Z,19.38
2023-05-20T17:35:11.525Z,19.46
2023-05-20T17:37:38.194Z,19.40
2023-05-20T17:40:07.763Z,19.38
2023-05-20T17:42:34.229Z,19.26
2023-05-20T17:45:00.817Z,19.32
2023-05-20T17:47:27.314Z,19.28
2023-05-20T17:50:16.551Z,19.31
2023-05-20T17:52:43.125Z,19.15
2023-05-20T17:55:09.846Z,19.17
2023-05-20T17:57:36.686Z,19.09
2023-05-20T18:00:05.440Z,19.05
2023-05-20T18:02:32.098Z,18.69
2023-05-20T18:04:58.696Z,18.99
2023-05-20T18:07:26.451Z,18.94
2023-05-20T18:09:52.881Z,18.84
2023-05-20T18:12:19.337Z,18.80
2023-05-20T18:14:46.030Z,18.78
2023-05-20T18:17:12.563Z,18.75
2023-05-20T18:19:39.012Z,18.47
2023-05-20T18:22:07.260Z,18.75
2023-05-20T18:24:33.850Z,18.34
2023-05-20T18:27:00.520Z,18.50
2023-05-20T18:29:27.083Z,18.58
2023-05-20T18:31:53.634Z,18.39
2023-05-20T18:34:20.130Z,18.58
2023-05-20T18:36:47.047Z,18.53
2023-05-20T18:39:15.993Z,18.50
2023-05-20T18:41:47.262Z,18.47
2023-05-20T18:44:18.416Z,18.42
2023-05-20T18:46:45.597Z,18.37
2023-05-20T18:49:12.275Z,17.83
2023-05-20T18:51:39.439Z,18.28
2023-05-20T18:54:06.096Z,17.97
2023-05-20T18:56:32.717Z,17.84
2023-05-20T18:58:59.810Z,18.07
2023-05-20T19:01:27.063Z,17.98
2023-05-20T19:03:53.574Z,17.98
2023-05-20T19:06:20.259Z,17.92
2023-05-20T19:08:49.049Z,17.88
2023-05-20T19:11:15.724Z,17.81
2023-05-20T19:13:42.212Z,17.72
2023-05-20T19:16:08.772Z,17.63
2023-05-20T19:18:35.432Z,17.37
2023-05-20T19:21:01.886Z,17.41
2023-05-20T19:23:28.340Z,17.26
2023-05-20T19:25:54.854Z,17.16
2023-05-20T19:28:21.536Z,17.04
2023-05-20T19:30:48.283Z,16.92
2023-05-20T19:33:14.888Z,16.68
2023-05-20T19:35:41.601Z,16.73
2023-05-20T19:38:08.148Z,16.30
2023-05-20T19:40:35.585Z,16.45
2023-05-20T19:43:02.225Z,16.39
2023-05-20T19:45:28.668Z,16.00
2023-05-20T19:47:56.733Z,16.00
2023-05-20T19:50:23.237Z,16.16
2023-05-20T19:52:49.926Z,16.05
2023-05-20T19:55:16.482Z,16.09
2023-05-20T19:57:46.428Z,16.06
2023-05-20T20:00:13.541Z,15.72
2023-05-20T20:02:40.558Z,15.89
2023-05-20T20:05:07.543Z,15.91
2023-05-20T20:07:34.176Z,15.91
2023-05-20T20:10:00.679Z,15.96
2023-05-20T20:12:27.217Z,15.95
2023-05-20T20:14:53.719Z,15.92
2023-05-20T20:17:23.335Z,15.82
2023-05-20T20:19:52.875Z,15.71
2023-05-20T20:22:19.533Z,15.83
2023-05-20T20:24:46.068Z,15.77
2023-05-20T20:27:13.277Z,15.79
2023-05-20T20:29:42.823Z,15.76
2023-05-20T20:32:09.472Z,15.72
2023-05-20T20:34:36.140Z,15.73
2023-05-20T20:37:02.750Z,15.71
2023-05-20T20:39:29.719Z,15.70
2023-05-20T20:41:58.692Z,15.67
2023-05-20T20:44:25.544Z,15.69
2023-05-20T20:46:54.756Z,15.68
2023-05-20T20:49:22.730Z,15.68
2023-05-20T20:51:50.045Z,15.67
2023-05-20T20:54:16.819Z,15.67
2023-05-20T20:56:45.472Z,15.66
2023-05-20T20:59:16.026Z,15.66
2023-05-20T21:01:44.545Z,15.62
2023-05-20T21:04:13.807Z,15.52
2023-05-20T21:06:46.084Z,15.63
2023-05-20T21:09:16.388Z,15.60
2023-05-20T21:11:43.258Z,15.73
2023-05-20T21:14:10.498Z,15.59
2023-05-20T21:16:37.337Z,15.41
2023-05-20T21:19:03.961Z,15.33
2023-05-20T21:21:31.576Z,15.53
2023-05-20T21:23:58.224Z,15.49
2023-05-20T21:26:25.749Z,15.36
2023-05-20T21:28:52.810Z,15.44
2023-05-20T21:31:19.944Z,15.36
2023-05-20T21:33:46.550Z,15.43
2023-05-20T21:36:13.047Z,15.41
2023-05-20T21:38:39.956Z,15.43
2023-05-20T21:41:06.583Z,15.32
2023-05-20T21:43:33.061Z,15.20
2023-05-20T21:45:59.689Z,15.37
2023-05-20T21:48:26.192Z,15.36
2023-05-20T21:50:52.627Z,15.26
2023-05-20T21:53:19.214Z,15.34
2023-05-20T21:55:45.823Z,15.30
2023-05-20T21:58:12.430Z,15.26
2023-05-20T22:00:39.024Z,15.27
2023-05-20T22:03:05.520Z,15.27
2023-05-20T22:05:34.578Z,15.01
2023-05-20T22:08:02.068Z,15.14
2023-05-20T22:10:28.490Z,15.20
2023-05-20T22:12:55.673Z,14.99
2023-05-20T22:15:22.919Z,15.16
2023-05-20T22:17:49.587Z,15.05
2023-05-20T22:20:16.780Z,15.10
2023-05-20T22:22:43.259Z,15.05
2023-05-20T22:25:09.973Z,15.00
2023-05-20T22:27:36.442Z,14.93
2023-05-20T22:30:05.977Z,14.96
2023-05-20T22:32:33.034Z,14.99
2023-05-20T22:34:59.686Z,14.94
2023-05-20T22:37:28.739Z,14.91
2023-05-20T22:39:55.997Z,14.87
2023-05-20T22:42:22.634Z,14.87
2023-05-20T22:44:49.125Z,14.85
2023-05-20T22:47:15.948Z,14.82
2023-05-20T22:49:42.606Z,14.80
2023-05-20T22:52:09.181Z,14.78
2023-05-20T22:54:35.749Z,14.79
2023-05-20T22:57:02.208Z,14.74
2023-05-20T22:59:31.078Z,14.76
2023-05-20T23:01:57.822Z,14.65
2023-05-20T23:04:24.334Z,14.73
2023-05-20T23:06:53.696Z,14.73
2023-05-20T23:09:20.443Z,14.70
2023-05-20T23:11:46.938Z,14.56
2023-05-20T23:14:13.388Z,14.72
2023-05-20T23:16:41.986Z,14.68
2023-05-20T23:19:08.905Z,14.68
2023-05-20T23:21:35.495Z,14.67
2023-05-20T23:24:01.933Z,14.51
2023-05-20T23:26:28.847Z,14.58
2023-05-20T23:28:55.862Z,14.63
2023-05-20T23:31:22.559Z,14.63
2023-05-20T23:33:49.264Z,14.63
2023-05-20T23:36:17.189Z,14.59
2023-05-20T23:38:43.748Z,14.60
2023-05-20T23:41:10.304Z,14.59
2023-05-20T23:43:37.029Z,14.34
2023-05-20T23:46:03.565Z,14.54
2023-05-20T23:48:29.987Z,14.51
2023-05-20T23:50:56.431Z,14.38
2023-05-20T23:53:22.863Z,14.49
2023-05-20T23:55:49.535Z,14.30
2023-05-20T23:58:16.677Z,14.43
